Time;durP1;ratioP1;P1;durP2;ratioP2;P2;SDS_P1;SDS_P2;PMS_P1;PMS_P2;Temp;Humidity;BMP_temperature;BMP_pressure;BME280_temperature;BME280_humidity;BME280_pressure;Samples;Min_cycle;Max_cycle;Signal;HPM_P1;HPM_P2
2021/07/10 00:01:02;;;;;;;7.13;6.40;;;18.60;90.90;;;;;;5001086;28;20185;-91
2021/07/10 00:03:28;;;;;;;6.55;6.00;;;18.50;90.80;;;;;;5001045;28;20188;-91
2021/07/10 00:05:53;;;;;;;6.63;6.00;;;18.50;91.00;;;;;;5020329;28;20178;-91
2021/07/10 00:08:19;;;;;;;6.60;6.00;;;18.50;90.60;;;;;;5004752;28;20202;-91
2021/07/10 00:10:45;;;;;;;6.28;5.78;;;18.50;90.30;;;;;;5004757;28;20177;-91
2021/07/10 00:13:11;;;;;;;8.23;6.30;;;18.60;89.90;;;;;;5021976;28;20181;-91
2021/07/10 00:15:36;;;;;;;6.65;5.88;;;18.50;90.20;;;;;;5003782;28;20231;-91
2021/07/10 00:18:03;;;;;;;7.68;5.95;;;18.50;90.60;;;;;;4987021;28;20211;-91
2021/07/10 00:20:29;;;;;;;7.05;6.40;;;18.50;91.00;;;;;;5020952;28;20257;-91
2021/07/10 00:22:54;;;;;;;8.15;6.90;;;18.40;91.20;;;;;;4986981;28;20186;-91
2021/07/10 00:25:21;;;;;;;8.43;7.55;;;18.50;91.30;;;;;;5021364;28;20190;-91
2021/07/10 00:27:48;;;;;;;8.23;7.45;;;18.60;91.50;;;;;;4987211;28;20202;-91
2021/07/10 00:30:17;;;;;;;8.50;7.63;;;18.60;91.90;;;;;;5020827;28;20182;-91
2021/07/10 00:32:44;;;;;;;11.73;8.20;;;18.60;92.10;;;;;;5003768;28;20216;-90
2021/07/10 00:35:10;;;;;;;8.07;7.32;;;18.50;92.40;;;;;;5003560;28;20206;-91
2021/07/10 00:37:36;;;;;;;21.83;8.05;;;18.50;92.30;;;;;;5003694;28;20354;-91
2021/07/10 00:40:04;;;;;;;29.25;8.55;;;18.20;91.80;;;;;;5021465;28;20178;-91
2021/07/10 00:42:29;;;;;;;8.02;7.22;;;17.80;93.90;;;;;;5014325;28;20177;-90
2021/07/10 00:44:55;;;;;;;16.45;8.02;;;17.70;95.60;;;;;;5014876;28;20244;-90
2021/07/10 00:47:21;;;;;;;17.67;8.13;;;17.60;95.10;;;;;;5030035;28;20185;-90
2021/07/10 00:49:46;;;;;;;6.93;6.38;;;17.30;96.90;;;;;;5003245;28;20197;-91
2021/07/10 00:52:12;;;;;;;7.53;7.03;;;17.30;97.50;;;;;;5020346;28;20256;-91
2021/07/10 00:54:38;;;;;;;7.55;6.95;;;17.50;96.90;;;;;;5020069;28;20603;-91
2021/07/10 00:57:06;;;;;;;7.05;6.50;;;17.70;96.20;;;;;;5020299;28;20828;-90
2021/07/10 00:59:33;;;;;;;8.18;7.43;;;17.80;95.20;;;;;;4986449;28;20224;-91
2021/07/10 01:01:58;;;;;;;9.50;7.57;;;18.00;94.60;;;;;;5019952;28;20360;-92
2021/07/10 01:04:24;;;;;;;7.32;6.72;;;17.90;94.20;;;;;;5020241;28;20193;-91
2021/07/10 01:06:50;;;;;;;7.65;6.95;;;17.90;93.90;;;;;;5022142;28;20205;-92
2021/07/10 01:09:15;;;;;;;7.90;7.20;;;17.80;93.90;;;;;;5022020;28;20218;-92
2021/07/10 01:11:42;;;;;;;7.45;6.82;;;17.80;94.10;;;;;;5005507;28;20219;-92
2021/07/10 01:14:08;;;;;;;7.05;6.45;;;17.90;94.30;;;;;;5020785;28;20218;-92
2021/07/10 01:16:34;;;;;;;6.90;6.30;;;17.90;94.20;;;;;;5021265;28;20191;-92
2021/07/10 01:19:00;;;;;;;6.85;6.22;;;17.90;93.50;;;;;;5005774;28;20221;-91
2021/07/10 01:21:25;;;;;;;6.32;5.70;;;17.90;92.80;;;;;;5019567;28;20763;-92
2021/07/10 01:23:51;;;;;;;6.00;5.50;;;17.90;92.40;;;;;;5002367;28;20185;-92
2021/07/10 01:26:21;;;;;;;6.38;5.78;;;17.90;91.90;;;;;;5019768;28;20187;-92
2021/07/10 01:28:47;;;;;;;8.88;5.80;;;17.90;92.10;;;;;;5019617;28;20192;-92
2021/07/10 01:31:13;;;;;;;5.90;5.40;;;17.90;92.40;;;;;;5019893;28;20660;-89
2021/07/10 01:33:39;;;;;;;7.30;6.60;;;17.80;92.60;;;;;;5001340;28;20199;-92
2021/07/10 01:36:05;;;;;;;6.18;5.72;;;17.90;92.60;;;;;;5019431;28;20229;-92
2021/07/10 01:38:31;;;;;;;6.13;5.63;;;17.80;93.20;;;;;;5001438;28;20311;-91
2021/07/10 01:40:57;;;;;;;7.18;6.60;;;17.90;92.40;;;;;;5018620;28;20236;-91
2021/07/10 01:43:23;;;;;;;6.95;6.35;;;17.90;92.90;;;;;;5018705;28;20656;-92
2021/07/10 01:45:49;;;;;;;6.75;6.15;;;17.90;92.30;;;;;;5020135;28;20200;-91
2021/07/10 01:48:15;;;;;;;6.32;5.72;;;17.90;91.20;;;;;;5003508;28;20225;-90
2021/07/10 01:50:43;;;;;;;5.97;5.57;;;18.00;90.70;;;;;;5003789;28;20197;-91
2021/07/10 01:53:14;;;;;;;5.93;5.32;;;18.00;90.40;;;;;;5021508;28;20185;-92
2021/07/10 01:55:41;;;;;;;6.78;6.28;;;18.00;91.40;;;;;;5003655;28;20284;-91
2021/07/10 01:58:06;;;;;;;6.40;5.80;;;18.00;91.00;;;;;;5038417;28;20263;-91
2021/07/10 02:00:40;;;;;;;10.32;6.35;;;17.80;90.80;;;;;;5024412;28;20178;-91
2021/07/10 02:03:05;;;;;;;5.60;5.20;;;17.90;91.00;;;;;;5002493;28;20173;-91
2021/07/10 02:05:31;;;;;;;6.60;6.10;;;17.80;90.90;;;;;;5013920;28;20191;-92
2021/07/10 02:07:58;;;;;;;6.45;5.95;;;17.70;92.00;;;;;;5022083;28;20201;-92
2021/07/10 02:10:25;;;;;;;6.70;6.20;;;17.70;91.60;;;;;;5021775;28;20312;-92
2021/07/10 02:12:56;;;;;;;5.80;5.40;;;17.70;92.00;;;;;;5022327;28;20184;-91
2021/07/10 02:15:22;;;;;;;6.05;5.45;;;17.60;91.90;;;;;;5039887;28;20192;-92
2021/07/10 02:17:48;;;;;;;5.68;5.07;;;17.70;91.70;;;;;;5022082;28;20256;-92
2021/07/10 02:20:18;;;;;;;6.40;5.78;;;17.70;91.10;;;;;;5039742;28;20177;-90
2021/07/10 02:22:44;;;;;;;5.70;5.30;;;17.60;90.10;;;;;;5021283;28;20180;-92
2021/07/10 02:25:12;;;;;;;6.10;5.32;;;17.60;91.20;;;;;;5040339;28;20184;-91
2021/07/10 02:27:38;;;;;;;6.07;5.60;;;17.50;90.70;;;;;;5025467;28;20267;-90
2021/07/10 02:30:09;;;;;;;5.43;5.05;;;17.50;90.50;;;;;;5056899;28;20195;-90
2021/07/10 02:32:35;;;;;;;5.05;4.60;;;17.50;91.20;;;;;;5025821;28;20271;-92
2021/07/10 02:35:00;;;;;;;6.00;5.50;;;17.60;91.20;;;;;;5040037;28;20242;-91
2021/07/10 02:37:28;;;;;;;7.15;5.18;;;17.60;90.70;;;;;;5032055;28;20215;-89
2021/07/10 02:39:53;;;;;;;5.40;4.90;;;17.60;90.30;;;;;;5039850;28;20184;-89
2021/07/10 02:42:19;;;;;;;5.20;4.82;;;17.70;89.40;;;;;;5028571;28;20219;-92
2021/07/10 02:44:45;;;;;;;5.72;4.93;;;17.60;89.30;;;;;;5038950;28;20207;-91
2021/07/10 02:47:10;;;;;;;5.63;5.22;;;17.60;89.70;;;;;;5039545;28;20197;-91
2021/07/10 02:49:36;;;;;;;6.85;6.25;;;17.60;89.40;;;;;;5038607;28;20563;-92
2021/07/10 02:52:03;;;;;;;6.07;5.68;;;17.60;89.20;;;;;;5039191;28;20567;-91
2021/07/10 02:54:28;;;;;;;6.15;5.75;;;17.50;89.50;;;;;;5038823;28;20204;-90
2021/07/10 02:56:54;;;;;;;4.75;4.45;;;17.40;89.60;;;;;;5021355;28;20219;-93
2021/07/10 02:59:20;;;;;;;6.35;5.75;;;17.40;89.60;;;;;;5039058;28;20760;-92
2021/07/10 03:01:45;;;;;;;6.63;5.32;;;17.40;89.80;;;;;;5038912;28;20208;-91
2021/07/10 03:04:11;;;;;;;5.90;5.40;;;17.40;89.80;;;;;;5021620;28;20195;-90
2021/07/10 03:06:37;;;;;;;5.90;5.47;;;17.40;89.70;;;;;;5039038;28;20207;-92
2021/07/10 03:09:02;;;;;;;4.85;4.55;;;17.40;89.50;;;;;;5038699;28;20204;-91
2021/07/10 03:11:28;;;;;;;4.82;4.53;;;17.30;89.30;;;;;;5038710;28;20188;-91
2021/07/10 03:13:54;;;;;;;4.68;4.38;;;17.30;88.60;;;;;;5039293;28;20754;-91
2021/07/10 03:16:19;;;;;;;4.60;4.20;;;17.30;88.40;;;;;;5038332;28;20179;-92
2021/07/10 03:18:45;;;;;;;4.15;3.85;;;17.30;88.90;;;;;;5021040;28;20206;-91
2021/07/10 03:21:10;;;;;;;8.85;4.40;;;17.20;88.90;;;;;;5020424;28;20195;-92
2021/07/10 03:23:37;;;;;;;3.90;3.70;;;17.20;87.90;;;;;;5004718;28;20255;-92
2021/07/10 03:26:03;;;;;;;4.18;3.78;;;17.30;88.50;;;;;;5019733;28;20183;-91
2021/07/10 03:28:29;;;;;;;4.22;3.92;;;17.20;87.90;;;;;;5019405;28;20203;-92
2021/07/10 03:30:54;;;;;;;3.50;3.30;;;17.20;87.70;;;;;;5019545;28;20181;-92
2021/07/10 03:33:21;;;;;;;3.70;3.47;;;17.20;88.30;;;;;;5002528;28;20199;-91
2021/07/10 03:35:47;;;;;;;3.60;3.40;;;17.20;87.20;;;;;;5019593;28;20221;-91
2021/07/10 03:38:13;;;;;;;3.65;3.45;;;17.10;87.50;;;;;;5002585;28;20557;-92
2021/07/10 03:40:39;;;;;;;4.20;3.90;;;17.20;87.60;;;;;;5020541;28;20270;-90
2021/07/10 03:43:04;;;;;;;3.80;3.50;;;17.00;87.80;;;;;;5021431;28;20565;-91
2021/07/10 03:45:31;;;;;;;3.45;3.17;;;17.00;88.40;;;;;;5021857;28;20184;-92
2021/07/10 03:47:56;;;;;;;3.15;2.92;;;17.00;87.80;;;;;;5021785;28;20195;-91
2021/07/10 03:50:22;;;;;;;4.85;3.17;;;17.00;87.60;;;;;;5021598;28;20187;-90
2021/07/10 03:52:48;;;;;;;3.60;3.35;;;17.10;87.40;;;;;;5022333;28;20701;-90
2021/07/10 03:55:15;;;;;;;3.20;3.00;;;17.00;87.10;;;;;;5003719;28;20288;-92
2021/07/10 03:57:41;;;;;;;3.10;2.90;;;17.00;87.30;;;;;;5020964;28;20219;-91
2021/07/10 04:00:17;;;;;;;3.75;2.78;;;16.90;87.00;;;;;;5033330;28;20210;-90
2021/07/10 04:02:43;;;;;;;3.05;2.60;;;16.90;87.60;;;;;;5039492;28;20184;-91
2021/07/10 04:05:10;;;;;;;2.45;2.35;;;16.80;87.70;;;;;;5023846;28;20183;-92
2021/07/10 04:07:37;;;;;;;3.67;2.65;;;16.80;87.80;;;;;;5040775;28;20221;-91
2021/07/10 04:10:06;;;;;;;2.90;2.70;;;16.60;86.40;;;;;;5041052;28;20202;-92
2021/07/10 04:12:31;;;;;;;2.83;2.60;;;16.40;87.90;;;;;;5040806;28;20274;-91
2021/07/10 04:15:00;;;;;;;5.35;2.80;;;16.30;90.80;;;;;;5022466;28;20624;-91
2021/07/10 04:17:32;;;;;;;3.08;2.78;;;16.30;90.30;;;;;;5041018;28;20214;-91
2021/07/10 04:20:03;;;;;;;4.60;2.60;;;16.50;89.80;;;;;;5040480;28;20186;-92
2021/07/10 04:22:28;;;;;;;3.20;2.90;;;16.60;89.00;;;;;;5040210;28;20175;-92
2021/07/10 04:24:54;;;;;;;4.40;3.03;;;16.70;88.30;;;;;;5023318;28;20199;-91
2021/07/10 04:27:20;;;;;;;2.90;2.70;;;16.60;87.60;;;;;;5022948;28;20187;-92
2021/07/10 04:29:48;;;;;;;3.05;2.50;;;16.70;88.80;;;;;;5040392;28;20185;-92
2021/07/10 04:32:14;;;;;;;3.30;2.83;;;16.80;88.30;;;;;;5028377;28;20672;-92
2021/07/10 04:34:40;;;;;;;2.83;2.63;;;16.90;88.00;;;;;;4988913;28;20212;-92
2021/07/10 04:37:06;;;;;;;3.17;2.88;;;16.90;87.60;;;;;;5022844;28;20195;-91
2021/07/10 04:39:32;;;;;;;3.17;2.88;;;16.90;87.10;;;;;;5005530;28;20204;-91
2021/07/10 04:41:58;;;;;;;2.88;2.67;;;16.90;87.80;;;;;;5006186;28;20203;-91
2021/07/10 04:44:23;;;;;;;3.10;2.90;;;16.90;88.50;;;;;;5023368;28;20185;-91
2021/07/10 04:46:49;;;;;;;3.25;3.03;;;17.00;87.70;;;;;;5023376;28;20215;-91
2021/07/10 04:49:15;;;;;;;3.03;2.78;;;17.00;88.30;;;;;;5018619;28;20222;-92
2021/07/10 04:51:41;;;;;;;3.35;3.05;;;16.90;87.60;;;;;;5025477;28;20187;-92
2021/07/10 04:54:07;;;;;;;3.42;3.13;;;17.00;89.20;;;;;;5043391;28;20287;-92
2021/07/10 04:56:32;;;;;;;3.50;3.25;;;17.00;88.10;;;;;;5045003;28;20215;-90
2021/07/10 04:58:58;;;;;;;3.50;3.30;;;17.00;88.30;;;;;;5023902;28;20227;-92
2021/07/10 05:01:24;;;;;;;3.53;3.22;;;17.10;88.30;;;;;;5042488;28;20186;-92
2021/07/10 05:03:49;;;;;;;3.80;3.50;;;17.10;88.10;;;;;;5008008;28;20195;-91
2021/07/10 05:06:15;;;;;;;3.90;3.47;;;17.10;88.70;;;;;;5025165;28;20226;-92
2021/07/10 05:08:41;;;;;;;4.18;3.85;;;17.00;89.20;;;;;;5042565;28;20213;-90
2021/07/10 05:11:06;;;;;;;4.00;3.70;;;17.10;89.80;;;;;;5042970;28;20184;-91
2021/07/10 05:13:32;;;;;;;4.72;4.32;;;17.10;89.70;;;;;;5041646;28;20180;-91
2021/07/10 05:15:58;;;;;;;5.70;5.20;;;17.20;89.60;;;;;;5041940;28;20663;-92
2021/07/10 05:18:23;;;;;;;5.28;4.57;;;17.30;89.60;;;;;;5020791;28;20204;-90
2021/07/10 05:20:49;;;;;;;5.68;5.18;;;17.20;89.70;;;;;;5037292;28;20269;-90
2021/07/10 05:23:15;;;;;;;5.90;5.30;;;17.20;90.60;;;;;;5044209;28;20184;-92
2021/07/10 05:25:41;;;;;;;6.20;5.55;;;17.20;90.40;;;;;;5022096;28;20690;-92
2021/07/10 05:28:07;;;;;;;5.72;5.32;;;17.20;91.30;;;;;;5027793;28;20216;-89
2021/07/10 05:30:32;;;;;;;9.55;5.70;;;17.20;92.10;;;;;;5041104;28;20189;-89
2021/07/10 05:32:58;;;;;;;5.65;5.25;;;17.20;92.20;;;;;;5032872;28;20190;-92
2021/07/10 05:35:26;;;;;;;8.43;5.68;;;17.20;92.70;;;;;;5023301;28;20211;-92
2021/07/10 05:37:52;;;;;;;5.53;5.13;;;17.30;93.20;;;;;;5040039;28;20537;-91
2021/07/10 05:40:18;;;;;;;6.38;5.93;;;17.30;93.10;;;;;;5022880;28;20192;-92
2021/07/10 05:42:47;;;;;;;5.20;4.80;;;17.20;93.20;;;;;;5040520;28;20184;-92
2021/07/10 05:45:13;;;;;;;5.40;5.10;;;17.30;93.30;;;;;;5040034;28;20178;-92
2021/07/10 05:47:39;;;;;;;4.80;4.50;;;17.20;93.50;;;;;;5040024;28;20208;-92
2021/07/10 05:50:05;;;;;;;4.25;4.00;;;17.30;93.70;;;;;;5039870;28;20536;-92
2021/07/10 05:52:31;;;;;;;5.60;5.20;;;17.40;93.50;;;;;;5039804;28;20184;-92
2021/07/10 05:54:56;;;;;;;5.80;5.30;;;17.50;93.50;;;;;;5032165;28;20902;-91
2021/07/10 05:57:22;;;;;;;6.38;5.97;;;17.60;93.40;;;;;;4999529;28;20191;-92
2021/07/10 05:59:47;;;;;;;6.43;5.93;;;17.60;93.10;;;;;;5007208;28;20197;-90
2021/07/10 06:02:13;;;;;;;6.07;5.68;;;17.60;93.10;;;;;;5038417;28;20213;-91
2021/07/10 06:04:39;;;;;;;6.38;5.78;;;17.70;93.30;;;;;;5037373;28;20187;-92
2021/07/10 06:07:06;;;;;;;5.45;5.05;;;17.70;93.20;;;;;;5002964;28;20266;-92
2021/07/10 06:09:33;;;;;;;6.38;5.97;;;17.70;93.10;;;;;;5038030;28;20233;-91
2021/07/10 06:11:59;;;;;;;7.17;6.50;;;17.60;93.50;;;;;;5020866;28;20183;-92
2021/07/10 06:14:25;;;;;;;6.40;5.78;;;17.70;92.40;;;;;;5019533;28;20298;-92
2021/07/10 06:16:50;;;;;;;6.00;5.50;;;17.70;92.70;;;;;;5020519;28;20237;-92
2021/07/10 06:19:16;;;;;;;6.43;5.93;;;17.70;93.00;;;;;;5017470;28;20211;-90
2021/07/10 06:21:42;;;;;;;6.83;6.20;;;17.70;92.50;;;;;;5022008;28;20173;-92
2021/07/10 06:24:08;;;;;;;7.13;6.53;;;17.80;92.70;;;;;;5000888;28;20194;-93
2021/07/10 06:26:33;;;;;;;6.43;5.82;;;17.80;93.40;;;;;;4999660;28;20188;-92
2021/07/10 06:29:00;;;;;;;6.97;6.38;;;17.80;93.30;;;;;;4999580;28;20243;-93
2021/07/10 06:31:26;;;;;;;7.50;6.80;;;17.80;92.10;;;;;;5002443;28;20192;-93
2021/07/10 06:33:52;;;;;;;7.57;6.97;;;17.80;92.10;;;;;;5029628;28;20268;-90
2021/07/10 06:36:18;;;;;;;6.27;5.87;;;17.90;91.50;;;;;;5016679;28;20611;-90
2021/07/10 06:38:43;;;;;;;6.82;6.32;;;18.00;91.50;;;;;;5029638;28;20207;-90
2021/07/10 06:41:09;;;;;;;6.63;6.13;;;18.00;91.60;;;;;;5034483;28;20175;-92
2021/07/10 06:43:34;;;;;;;10.10;7.50;;;18.10;92.60;;;;;;5017189;28;20187;-92
2021/07/10 06:46:02;;;;;;;7.90;7.22;;;18.10;91.80;;;;;;5015720;28;20200;-93
2021/07/10 06:48:28;;;;;;;8.63;7.82;;;18.10;92.30;;;;;;5015712;28;20231;-90
2021/07/10 06:50:54;;;;;;;9.80;8.77;;;18.30;91.80;;;;;;4997837;28;20241;-92
2021/07/10 06:53:22;;;;;;;7.55;6.85;;;18.30;91.30;;;;;;5019041;28;20187;-90
2021/07/10 06:55:49;;;;;;;9.00;8.30;;;18.40;92.70;;;;;;5015771;28;20233;-91
2021/07/10 06:58:15;;;;;;;8.93;8.23;;;18.50;92.10;;;;;;4996887;28;20224;-92
2021/07/10 07:00:41;;;;;;;9.05;8.25;;;18.60;91.70;;;;;;5012614;28;20202;-92
2021/07/10 07:03:07;;;;;;;8.35;7.60;;;18.70;90.80;;;;;;5002045;28;20180;-92
2021/07/10 07:05:33;;;;;;;10.40;9.52;;;18.80;90.40;;;;;;5021470;28;20182;-92
2021/07/10 07:07:58;;;;;;;11.13;10.02;;;18.90;91.30;;;;;;4987520;28;20584;-92
2021/07/10 07:10:24;;;;;;;10.13;9.23;;;19.00;90.20;;;;;;5004068;28;20272;-91
2021/07/10 07:12:49;;;;;;;10.10;9.20;;;19.10;90.30;;;;;;4985986;28;20190;-89
2021/07/10 07:15:16;;;;;;;11.07;10.10;;;19.20;91.00;;;;;;5003038;28;20239;-89
2021/07/10 07:17:42;;;;;;;10.52;9.52;;;19.30;90.80;;;;;;5002480;28;20297;-89
2021/07/10 07:20:12;;;;;;;12.07;10.88;;;19.50;87.50;;;;;;5002454;28;20201;-89
2021/07/10 07:22:37;;;;;;;13.15;11.90;;;19.50;88.00;;;;;;5020171;28;20192;-90
2021/07/10 07:25:04;;;;;;;12.82;11.50;;;19.60;86.70;;;;;;5002693;28;20190;-90
2021/07/10 07:27:30;;;;;;;15.48;11.35;;;19.60;86.60;;;;;;5003121;28;20286;-90
2021/07/10 07:29:55;;;;;;;13.40;10.52;;;19.70;88.20;;;;;;5003149;28;20225;-90
2021/07/10 07:32:21;;;;;;;12.63;11.38;;;19.70;88.90;;;;;;5021401;28;20204;-88
2021/07/10 07:34:48;;;;;;;13.50;11.27;;;19.80;88.70;;;;;;5004163;28;20201;-89
2021/07/10 07:37:15;;;;;;;13.07;9.50;;;19.80;87.40;;;;;;5021324;28;20227;-91
2021/07/10 07:39:44;;;;;;;12.40;9.70;;;19.90;87.80;;;;;;5022151;28;20206;-88
2021/07/10 07:42:11;;;;;;;14.43;9.32;;;20.00;88.00;;;;;;5020966;28;20178;-91
2021/07/10 07:44:36;;;;;;;11.73;9.13;;;20.00;88.90;;;;;;5022244;28;20285;-90
2021/07/10 07:47:02;;;;;;;14.77;9.40;;;20.00;88.30;;;;;;5022585;28;20185;-91
2021/07/10 07:49:28;;;;;;;11.43;9.57;;;20.00;88.30;;;;;;5004864;28;20209;-91
2021/07/10 07:51:54;;;;;;;11.52;8.63;;;20.10;86.80;;;;;;4987366;28;20189;-91
2021/07/10 07:54:19;;;;;;;15.88;9.68;;;20.20;87.60;;;;;;5003251;28;20201;-90
2021/07/10 07:56:45;;;;;;;17.45;9.63;;;20.20;88.50;;;;;;5009155;28;20271;-90
2021/07/10 07:59:11;;;;;;;12.90;9.23;;;20.20;86.80;;;;;;5027416;28;20338;-92
2021/07/10 08:01:37;;;;;;;11.45;8.95;;;20.40;86.00;;;;;;5007643;28;20189;-91
2021/07/10 08:04:03;;;;;;;9.77;8.73;;;20.40;86.20;;;;;;5006622;28;20203;-90
2021/07/10 08:06:30;;;;;;;10.57;8.00;;;20.70;83.20;;;;;;5024064;28;20194;-88
2021/07/10 08:08:55;;;;;;;12.77;9.00;;;20.90;81.60;;;;;;5014142;28;20263;-89
2021/07/10 08:11:21;;;;;;;10.55;8.35;;;21.10;80.50;;;;;;5031449;28;20215;-86
2021/07/10 08:13:47;;;;;;;10.65;8.25;;;21.20;82.10;;;;;;5025577;28;20185;-88
2021/07/10 08:16:12;;;;;;;9.45;8.50;;;21.40;78.30;;;;;;4999319;28;20193;-88
2021/07/10 08:18:38;;;;;;;10.50;9.15;;;21.50;77.10;;;;;;5015091;28;20196;-89
2021/07/10 08:21:05;;;;;;;13.20;8.75;;;21.50;77.40;;;;;;5030709;28;20200;-89
2021/07/10 08:23:31;;;;;;;12.00;7.97;;;21.60;75.90;;;;;;5006801;28;20177;-91
2021/07/10 08:25:56;;;;;;;11.70;8.63;;;21.60;76.80;;;;;;5006916;28;20265;-91
2021/07/10 08:28:22;;;;;;;8.65;7.85;;;21.70;78.20;;;;;;5025909;28;20206;-90
2021/07/10 08:30:48;;;;;;;9.25;8.38;;;21.80;76.70;;;;;;5012019;28;20221;-92
2021/07/10 08:33:13;;;;;;;8.90;7.88;;;22.00;77.00;;;;;;5028918;28;20549;-91
2021/07/10 08:35:39;;;;;;;7.82;7.15;;;22.10;77.80;;;;;;5026781;28;20209;-92
2021/07/10 08:38:06;;;;;;;8.15;7.45;;;22.20;77.00;;;;;;4994011;28;20276;-92
2021/07/10 08:40:32;;;;;;;8.82;7.32;;;22.30;75.00;;;;;;5029267;28;20177;-92
2021/07/10 08:42:58;;;;;;;8.60;7.85;;;22.20;74.80;;;;;;5028657;28;20188;-92
2021/07/10 08:45:29;;;;;;;8.15;7.43;;;22.30;74.50;;;;;;5017060;28;20190;-91
2021/07/10 08:47:56;;;;;;;9.10;8.30;;;22.30;75.40;;;;;;5013984;28;20202;-91
2021/07/10 08:50:21;;;;;;;10.27;7.80;;;22.40;73.70;;;;;;5012486;28;20190;-91
2021/07/10 08:52:49;;;;;;;11.02;8.05;;;22.50;74.30;;;;;;4995898;28;20204;-88
2021/07/10 08:55:15;;;;;;;8.10;7.40;;;22.50;75.30;;;;;;5026005;28;20264;-86
2021/07/10 08:57:42;;;;;;;8.05;7.18;;;22.70;75.30;;;;;;5025843;28;20224;-91
2021/07/10 09:00:13;;;;;;;7.90;7.30;;;22.70;75.00;;;;;;5034653;28;20189;-91
2021/07/10 09:02:45;;;;;;;8.30;7.50;;;23.00;73.60;;;;;;5045230;28;20258;-92
2021/07/10 09:05:12;;;;;;;9.15;7.32;;;23.20;74.20;;;;;;5045755;28;20241;-90
2021/07/10 09:08:22;;;;;;;8.20;7.50;;;23.40;72.10;;;;;;5045135;28;20189;-90
2021/07/10 09:11:11;;;;;;;7.82;7.03;;;23.50;71.60;;;;;;5027448;28;20706;-92
2021/07/10 09:13:43;;;;;;;8.15;7.45;;;23.80;71.00;;;;;;5027277;28;20250;-91
2021/07/10 09:16:24;;;;;;;10.95;8.75;;;23.40;71.00;;;;;;5045279;28;20663;-91
2021/07/10 09:18:59;;;;;;;9.18;8.32;;;23.20;71.90;;;;;;5044765;28;20260;-93
2021/07/10 09:21:50;;;;;;;7.93;7.15;;;23.40;71.70;;;;;;5044623;28;20165;-89
2021/07/10 09:24:34;;;;;;;9.20;8.30;;;23.70;71.30;;;;;;5025498;28;20207;-90
2021/07/10 09:27:08;;;;;;;8.90;7.82;;;23.70;71.10;;;;;;5042861;28;20224;-90
2021/07/10 09:29:46;;;;;;;8.50;7.65;;;23.80;69.50;;;;;;5027215;28;20234;-90
2021/07/10 09:32:16;;;;;;;8.77;7.82;;;23.80;69.20;;;;;;5044486;28;20164;-91
2021/07/10 09:35:03;;;;;;;9.20;7.78;;;24.10;69.20;;;;;;5025931;28;20273;-90
2021/07/10 09:37:29;;;;;;;10.02;8.82;;;24.10;67.90;;;;;;5023743;28;20188;-90
2021/07/10 09:39:59;;;;;;;8.95;8.10;;;24.10;68.10;;;;;;5021826;28;20243;-90
2021/07/10 09:42:37;;;;;;;8.73;7.82;;;24.10;70.40;;;;;;5023014;28;20188;-91
2021/07/10 09:45:06;;;;;;;8.82;7.78;;;24.30;67.10;;;;;;5037639;28;20177;-91
2021/07/10 09:47:34;;;;;;;10.38;7.35;;;24.50;66.30;;;;;;5036205;28;20189;-90
2021/07/10 09:50:06;;;;;;;8.75;7.38;;;24.60;64.10;;;;;;5035620;28;20189;-90
2021/07/10 09:52:35;;;;;;;8.88;7.53;;;24.90;61.50;;;;;;5034087;28;20572;-91
2021/07/10 09:55:10;;;;;;;9.02;7.07;;;25.00;61.10;;;;;;5036400;28;20201;-91
2021/07/10 09:57:38;;;;;;;7.93;7.10;;;25.10;61.60;;;;;;5036514;28;20173;-87
2021/07/10 10:00:11;;;;;;;8.35;7.53;;;25.20;58.00;;;;;;5035040;28;20300;-90
2021/07/10 10:02:55;;;;;;;8.15;7.55;;;25.10;60.70;;;;;;5037514;28;20183;-91
2021/07/10 10:05:26;;;;;;;9.55;8.30;;;25.10;60.80;;;;;;5028677;28;20181;-90
2021/07/10 10:07:54;;;;;;;9.40;8.07;;;25.20;62.00;;;;;;5016269;28;20205;-90
2021/07/10 10:10:39;;;;;;;8.20;7.60;;;25.30;62.80;;;;;;5020888;28;20253;-91
2021/07/10 10:13:05;;;;;;;7.22;6.53;;;25.50;59.60;;;;;;5021719;28;20170;-90
2021/07/10 10:15:35;;;;;;;6.93;6.30;;;25.60;56.60;;;;;;5022198;28;20208;-91
2021/07/10 10:18:01;;;;;;;10.40;6.32;;;25.50;56.30;;;;;;5022209;28;20198;-90
2021/07/10 10:20:28;;;;;;;7.13;6.55;;;25.70;55.30;;;;;;5040049;28;20195;-91
2021/07/10 10:22:55;;;;;;;7.35;6.10;;;25.80;54.40;;;;;;5039394;28;20170;-91
2021/07/10 10:25:22;;;;;;;6.65;6.13;;;25.90;52.80;;;;;;5021937;28;20181;-91
2021/07/10 10:27:50;;;;;;;7.25;6.75;;;26.20;54.80;;;;;;5039555;28;20200;-90
2021/07/10 10:30:17;;;;;;;7.38;6.88;;;26.50;56.10;;;;;;5038451;28;20188;-90
2021/07/10 10:32:46;;;;;;;6.85;6.22;;;26.50;55.30;;;;;;5039960;28;20177;-92
2021/07/10 10:35:13;;;;;;;6.28;5.78;;;26.30;53.00;;;;;;5017498;28;20197;-91
2021/07/10 10:37:40;;;;;;;6.43;5.93;;;26.50;53.00;;;;;;5036903;28;20193;-90
2021/07/10 10:40:17;;;;;;;6.28;5.88;;;26.70;51.70;;;;;;5038809;28;20181;-91
2021/07/10 10:42:44;;;;;;;6.65;6.15;;;27.10;52.10;;;;;;5027754;28;20177;-91
2021/07/10 10:45:11;;;;;;;7.05;6.53;;;27.30;50.90;;;;;;5041980;28;20193;-91
2021/07/10 10:47:43;;;;;;;7.43;6.45;;;27.20;52.50;;;;;;4990533;28;20302;-91
2021/07/10 10:50:43;;;;;;;7.68;6.22;;;26.70;52.40;;;;;;5028921;28;20186;-91
2021/07/10 10:53:20;;;;;;;6.82;6.18;;;26.20;52.90;;;;;;5001554;28;20193;-91
2021/07/10 10:55:47;;;;;;;8.25;6.35;;;26.40;55.70;;;;;;5006206;28;20201;-92
2021/07/10 10:58:30;;;;;;;4.93;4.53;;;26.80;53.40;;;;;;5025615;28;20627;-92
2021/07/10 11:01:02;;;;;;;4.68;4.38;;;27.20;45.80;;;;;;5045121;28;20268;-89
2021/07/10 11:03:39;;;;;;;5.20;4.80;;;27.50;43.10;;;;;;5033100;28;20208;-90
2021/07/10 11:06:06;;;;;;;4.97;4.55;;;27.80;44.00;;;;;;5049102;28;20183;-89
2021/07/10 11:08:34;;;;;;;5.43;4.93;;;27.40;44.50;;;;;;5040491;28;20217;-91
2021/07/10 11:10:59;;;;;;;5.47;5.07;;;27.50;47.30;;;;;;5007344;28;20249;-91
2021/07/10 11:13:54;;;;;;;4.85;4.43;;;28.10;43.60;;;;;;5023657;28;20181;-92
2021/07/10 11:16:20;;;;;;;5.05;4.68;;;28.50;42.60;;;;;;5024026;28;20204;-89
2021/07/10 11:19:08;;;;;;;4.70;4.30;;;28.80;40.00;;;;;;5008850;28;20690;-91
2021/07/10 11:21:44;;;;;;;6.13;4.25;;;28.60;40.60;;;;;;5037701;28;20196;-91
2021/07/10 11:24:25;;;;;;;4.82;4.43;;;28.80;40.20;;;;;;5037672;28;20161;-91
2021/07/10 11:26:56;;;;;;;4.72;4.40;;;29.10;40.90;;;;;;5037239;28;20185;-91
2021/07/10 11:29:27;;;;;;;5.00;4.60;;;29.30;40.40;;;;;;5027144;28;20256;-92
2021/07/10 11:32:25;;;;;;;4.55;4.18;;;29.20;39.10;;;;;;5036372;28;20173;-92
2021/07/10 11:34:57;;;;;;;4.63;4.25;;;28.90;39.60;;;;;;5029730;28;20217;-91
2021/07/10 11:37:31;;;;;;;4.60;4.30;;;29.00;42.30;;;;;;5039440;28;20184;-92
2021/07/10 11:40:06;;;;;;;5.38;4.97;;;28.80;40.80;;;;;;5038132;28;20207;-91
2021/07/10 11:42:37;;;;;;;5.00;4.60;;;28.60;40.60;;;;;;5038829;28;20163;-93
2021/07/10 11:45:05;;;;;;;5.70;5.10;;;28.30;43.00;;;;;;5036610;28;20227;-90
2021/07/10 11:47:37;;;;;;;5.00;4.70;;;28.30;41.90;;;;;;5016913;28;20174;-92
2021/07/10 11:50:06;;;;;;;5.30;4.90;;;28.20;43.50;;;;;;5000619;28;20496;-90
2021/07/10 11:52:32;;;;;;;5.25;4.85;;;28.30;44.20;;;;;;5019650;28;20200;-94
2021/07/10 11:55:00;;;;;;;5.15;4.75;;;28.70;42.50;;;;;;5002409;28;20273;-93
2021/07/10 11:57:32;;;;;;;5.00;4.60;;;28.90;44.00;;;;;;5019140;28;20177;-91
2021/07/10 11:59:58;;;;;;;4.85;4.55;;;29.10;40.90;;;;;;5026959;28;20196;-91
2021/07/10 12:02:34;;;;;;;5.15;4.70;;;28.90;39.90;;;;;;5021186;28;20180;-92
2021/07/10 12:05:21;;;;;;;5.30;4.80;;;29.00;42.00;;;;;;5023397;28;20200;-91
2021/07/10 12:07:54;;;;;;;5.10;4.80;;;29.00;40.90;;;;;;5004396;28;20193;-91
2021/07/10 12:10:27;;;;;;;4.97;4.68;;;28.60;41.90;;;;;;5022349;28;20249;-90
2021/07/10 12:12:56;;;;;;;4.65;4.35;;;28.50;42.50;;;;;;5020348;28;20186;-90
2021/07/10 12:15:27;;;;;;;6.15;5.28;;;28.50;42.50;;;;;;5020011;28;20243;-91
2021/07/10 12:17:56;;;;;;;5.00;4.70;;;28.50;41.50;;;;;;5041194;28;20775;-91
2021/07/10 12:20:31;;;;;;;4.95;4.65;;;28.40;41.70;;;;;;5024620;28;20260;-88
2021/07/10 12:23:10;;;;;;;5.13;4.72;;;28.10;42.40;;;;;;5024481;28;20181;-92
2021/07/10 12:25:51;;;;;;;6.43;4.70;;;27.60;43.00;;;;;;5024918;28;20183;-91
2021/07/10 12:28:38;;;;;;;4.95;4.55;;;27.50;43.90;;;;;;5025043;28;20197;-91
2021/07/10 12:31:23;;;;;;;5.50;5.00;;;27.90;42.50;;;;;;5043318;28;20187;-91
2021/07/10 12:34:03;;;;;;;4.45;4.15;;;27.90;43.50;;;;;;5023918;28;20177;-90
2021/07/10 12:36:37;;;;;;;6.13;5.35;;;28.60;42.60;;;;;;5041173;28;20260;-91
2021/07/10 12:39:07;;;;;;;5.90;5.40;;;29.30;43.50;;;;;;5039922;28;20201;-91
2021/07/10 12:41:49;;;;;;;6.05;5.55;;;29.60;43.00;;;;;;5026530;28;20189;-91
2021/07/10 12:44:17;;;;;;;6.00;5.47;;;29.80;43.00;;;;;;5020834;28;20196;-92
2021/07/10 12:47:11;;;;;;;8.77;5.47;;;29.90;43.00;;;;;;5020662;28;20248;-91
2021/07/10 12:49:45;;;;;;;7.88;6.55;;;29.90;40.60;;;;;;5013695;28;20218;-91
2021/07/10 12:52:46;;;;;;;5.95;5.55;;;29.70;40.90;;;;;;5005904;28;20236;-91